Time,TemperatureF,DewpointF,PressureIn,WindDirection,WindDirectionDegrees,WindSpeedMPH,WindSpeedGustMPH,Humidity,HourlyPrecipIn,Conditions,Clouds,dailyrainin,SolarRadiationWatts/m^2,SoftwareType,DateUTC
2013-06-22 07:22:00,42.0,42.0,-100.00,SE,129,0.0,0.0,99,0.00,,,0.00,52.000000,,2013-06-22 15:22:00,
2013-06-22 07:34:00,42.0,42.0,-100.00,SE,129,0.0,0.0,99,0.00,,,0.00,52.000000,,2013-06-22 15:34:00,
2013-06-22 07:43:00,42.0,42.0,-100.00,SE,129,0.0,0.0,99,0.00,,,0.00,52.000000,,2013-06-22 15:43:00,
2013-06-22 07:53:00,42.0,42.0,-100.00,SE,129,0.0,0.0,99,0.00,,,0.00,52.000000,,2013-06-22 15:53:00,
2013-06-22 08:22:00,47.0,45.0,-100.00,ENE,72,0.0,0.0,93,0.00,,,0.00,85.000000,,2013-06-22 16:22:00,
2013-06-22 08:34:00,47.0,45.0,-100.00,ENE,72,0.0,0.0,93,0.00,,,0.00,85.000000,,2013-06-22 16:34:00,
2013-06-22 08:43:00,47.0,45.0,-100.00,ENE,72,0.0,0.0,93,0.00,,,0.00,85.000000,,2013-06-22 16:43:00,
2013-06-22 08:52:00,47.0,45.0,-100.00,ENE,72,0.0,0.0,93,0.00,,,0.00,85.000000,,2013-06-22 16:52:00,
2013-06-22 09:43:00,51.0,45.0,-100.00,SSE,168,2.0,4.0,79,0.00,,,0.00,191.000000,,2013-06-22 17:43:00,
2013-06-22 09:52:00,51.0,45.0,-100.00,SSE,168,2.0,4.0,79,0.00,,,0.00,191.000000,,2013-06-22 17:52:00,
2013-06-22 10:34:00,54.0,45.0,-100.00,SSE,166,1.0,6.0,72,0.00,,,0.00,96.000000,,2013-06-22 18:34:00,
2013-06-22 10:43:00,54.0,45.0,-100.00,SSE,166,1.0,6.0,72,0.00,,,0.00,96.000000,,2013-06-22 18:43:00,
2013-06-22 10:52:00,54.0,45.0,-100.00,SSE,166,1.0,6.0,72,0.00,,,0.00,96.000000,,2013-06-22 18:52:00,
2013-06-22 11:33:00,63.0,47.0,-100.00,South,178,3.0,7.0,56,0.00,,,0.00,167.000000,,2013-06-22 19:33:00,
2013-06-22 11:42:00,63.0,47.0,-100.00,South,178,3.0,7.0,56,0.00,,,0.00,167.000000,,2013-06-22 19:42:00,
2013-06-22 11:52:00,63.0,47.0,-100.00,South,178,3.0,7.0,56,0.00,,,0.00,167.000000,,2013-06-22 19:52:00,
2013-06-22 15:43:00,65.0,45.0,-100.00,South,174,5.0,10.0,49,-99.99,,,0.00,487.000000,,2013-06-22 23:43:00,
2013-06-22 15:52:00,65.0,45.0,-100.00,South,174,5.0,10.0,49,-99.99,,,0.00,487.000000,,2013-06-22 23:52:00,
2013-06-22 16:22:00,64.0,46.0,-100.00,SSE,163,3.0,11.0,52,0.00,,,0.00,440.000000,,2013-06-23 00:22:00,
2013-06-22 16:33:00,64.0,46.0,-100.00,SSE,163,3.0,11.0,52,0.00,,,0.00,440.000000,,2013-06-23 00:33:00,
2013-06-22 16:42:00,64.0,46.0,-100.00,SSE,163,3.0,11.0,52,0.00,,,0.00,440.000000,,2013-06-23 00:42:00,
2013-06-22 16:52:00,64.0,46.0,-100.00,SSE,163,3.0,11.0,52,0.00,,,0.00,440.000000,,2013-06-23 00:52:00,
2013-06-22 17:21:00,63.0,44.0,-100.00,SSW,194,4.0,11.0,49,0.00,,,0.00,438.000000,,2013-06-23 01:21:00,
2013-06-22 17:32:00,63.0,44.0,-100.00,SSW,194,4.0,11.0,49,0.00,,,0.00,438.000000,,2013-06-23 01:32:00,
2013-06-22 17:42:00,63.0,44.0,-100.00,SSW,194,4.0,11.0,49,0.00,,,0.00,438.000000,,2013-06-23 01:42:00,
2013-06-22 17:52:00,63.0,44.0,-100.00,SSW,194,4.0,11.0,49,0.00,,,0.00,438.000000,,2013-06-23 01:52:00,
2013-06-22 18:21:00,63.0,46.0,-100.00,SSW,195,2.0,10.0,54,0.00,,,0.00,282.000000,,2013-06-23 02:21:00,
2013-06-22 18:31:00,63.0,46.0,-100.00,SSW,195,2.0,10.0,54,0.00,,,0.00,282.000000,,2013-06-23 02:31:00,
2013-06-22 18:41:00,63.0,46.0,-100.00,SSW,195,2.0,10.0,54,0.00,,,0.00,282.000000,,2013-06-23 02:41:00,
2013-06-22 18:52:00,63.0,46.0,-100.00,SSW,195,2.0,10.0,54,0.00,,,0.00,282.000000,,2013-06-23 02:52:00,
2013-06-22 19:21:00,61.0,45.0,-100.00,SSW,200,3.0,9.0,55,0.00,,,0.00,204.000000,,2013-06-23 03:21:00,
2013-06-22 19:31:00,61.0,45.0,-100.00,SSW,200,3.0,9.0,55,0.00,,,0.00,204.000000,,2013-06-23 03:31:00,
2013-06-22 19:41:00,61.0,45.0,-100.00,SSW,200,3.0,9.0,55,0.00,,,0.00,204.000000,,2013-06-23 03:41:00,
2013-06-22 19:51:00,61.0,45.0,-100.00,SSW,200,3.0,9.0,55,0.00,,,0.00,204.000000,,2013-06-23 03:51:00,
2013-06-22 20:21:00,59.0,45.0,-100.00,SE,135,1.0,7.0,60,0.00,,,0.00,151.000000,,2013-06-23 04:21:00,
2013-06-22 20:31:00,59.0,45.0,-100.00,SE,135,1.0,7.0,60,0.00,,,0.00,151.000000,,2013-06-23 04:31:00,
2013-06-22 20:42:00,59.0,45.0,-100.00,SE,135,1.0,7.0,60,0.00,,,0.00,151.000000,,2013-06-23 04:42:00,
2013-06-22 20:52:00,59.0,45.0,-100.00,SE,135,1.0,7.0,60,0.00,,,0.00,151.000000,,2013-06-23 04:52:00,
2013-06-22 21:22:00,55.0,45.0,-100.00,SSW,202,3.0,10.0,68,0.00,,,0.00,81.000000,,2013-06-23 05:22:00,
2013-06-22 21:32:00,55.0,45.0,-100.00,SSW,202,3.0,10.0,68,0.00,,,0.00,81.000000,,2013-06-23 05:32:00,
2013-06-22 21:41:00,55.0,45.0,-100.00,SSW,202,3.0,10.0,68,0.00,,,0.00,81.000000,,2013-06-23 05:41:00,
2013-06-22 21:51:00,55.0,45.0,-100.00,SSW,202,3.0,10.0,68,0.00,,,0.00,81.000000,,2013-06-23 05:51:00,
2013-06-22 22:22:00,52.0,45.0,-100.00,SE,145,2.0,8.0,77,0.00,,,0.00,52.000000,,2013-06-23 06:22:00,
2013-06-22 22:33:00,52.0,45.0,-100.00,SE,145,2.0,8.0,77,0.00,,,0.00,52.000000,,2013-06-23 06:33:00,
2013-06-22 22:43:00,52.0,45.0,-100.00,SE,145,2.0,8.0,77,0.00,,,0.00,52.000000,,2013-06-23 06:43:00,
2013-06-22 22:52:00,52.0,45.0,-100.00,SE,145,2.0,8.0,77,0.00,,,0.00,52.000000,,2013-06-23 06:52:00,
2013-06-22 23:22:00,51.0,46.0,-100.00,ENE,67,1.0,6.0,82,0.00,,,0.00,19.000000,,2013-06-23 07:22:00,
2013-06-22 23:34:00,51.0,46.0,-100.00,ENE,67,1.0,6.0,82,0.00,,,0.00,19.000000,,2013-06-23 07:34:00,
2013-06-22 23:43:00,51.0,46.0,-100.00,ENE,67,1.0,6.0,82,0.00,,,0.00,19.000000,,2013-06-23 07:43:00,
2013-06-22 23:53:00,51.0,46.0,-100.00,ENE,67,1.0,6.0,82,0.00,,,0.00,19.000000,,2013-06-23 07:53:00,